This is the latest recevied weather packets stored in our database for station/object ANJALA. If no packets are shown the sender has not sent any weather packets the latest 10 day(s).
| Time | Temp. | Humidity | Pressure | Rain* | Wind** | Luminosity | Snow |
|---|---|---|---|---|---|---|---|
| 1788560686 | 8.33° C | 100% | - | 0 mm | - | - | - |
| 1788549885 | 9.44° C | 99% | - | 0 mm | - | - | - |
| 1788544875 | 10.56° C | 98% | - | 0 mm | - | - | - |
| 1788535484 | 14.44° C | 86% | - | 0 mm | - | - | - |
| 1788531884 | 15° C | 87% | - | 2.29 mm | - | - | - |
| 1788528283 | 12.78° C | 96% | - | 1.27 mm | - | - | - |
| 1788524684 | 16.11° C | 60% | - | 0 mm | - | - | - |
| 1788521083 | 17.78° C | 63% | - | 0 mm | - | - | - |
| 1788517483 | 17.78° C | 63% | - | 0 mm | - | - | - |
| 1788514873 | 16.11° C | 69% | - | 0 mm | - | - | - |
| 1788510283 | 14.44° C | 84% | - | 0 mm | - | - | - |
| 1788509083 | 13.89° C | 87% | - | 0 mm | - | - | - |
| 1788506682 | 12.78° C | 88% | - | 0 mm | - | - | - |
| 1788505483 | 12.22° C | 92% | - | 0 mm | - | - | - |
| 1788503082 | 10.56° C | 95% | - | 0 mm | - | - | - |
| 1788501883 | 10.56° C | 95% | - | 0 mm | - | - | - |
| 1788499481 | 10° C | 99% | - | 0 mm | - | - | - |
| 1788498281 | 8.89° C | 99% | - | 0 mm | - | - | - |
| 1788497081 | 8.33° C | 99% | - | 0 mm | - | - | - |
| 1788495882 | 7.78° C | 99% | - | 0 mm | - | - | - |
| 1788494681 | 7.22° C | 99% | - | 0 mm | - | - | - |
| 1788493481 | 7.22° C | 99% | - | 0 mm | - | - | - |
| 1788492282 | 7.22° C | 99% | - | 0 mm | - | - | - |
| 1788487271 | 7.78° C | 99% | - | 0 mm | - | - | - |
| 1788486284 | 7.22° C | 98% | - | 0 mm | - | - | - |
* Rain latest hour (hover to see other rain measurements)
** Current wind speed in m/s (hover to see current wind gust speed)